sensor_id;sensor_type;location;lat;lon;timestamp;P1;durP1;ratioP1;P2;durP2;ratioP2
53521;SDS011;39398;48.382;9.802;2023-05-01T00:01:09;9.18;;;3.97;;
53521;SDS011;39398;48.382;9.802;2023-05-01T00:06:10;7.78;;;4.78;;
53521;SDS011;39398;48.382;9.802;2023-05-01T00:11:15;6.55;;;4.60;;
53521;SDS011;39398;48.382;9.802;2023-05-01T00:16:19;11.45;;;5.22;;
53521;SDS011;39398;48.382;9.802;2023-05-01T00:21:22;9.73;;;5.45;;
53521;SDS011;39398;48.382;9.802;2023-05-01T00:26:24;8.80;;;4.03;;
53521;SDS011;39398;48.382;9.802;2023-05-01T00:31:30;7.28;;;5.65;;
53521;SDS011;39398;48.382;9.802;2023-05-01T00:36:31;7.03;;;5.15;;
53521;SDS011;39398;48.382;9.802;2023-05-01T00:41:33;7.07;;;4.70;;
53521;SDS011;39398;48.382;9.802;2023-05-01T00:46:36;9.95;;;4.22;;
53521;SDS011;39398;48.382;9.802;2023-05-01T00:51:40;7.70;;;5.25;;
53521;SDS011;39398;48.382;9.802;2023-05-01T00:56:43;9.30;;;5.70;;
53521;SDS011;39398;48.382;9.802;2023-05-01T01:01:51;8.27;;;5.57;;
53521;SDS011;39398;48.382;9.802;2023-05-01T01:06:59;8.05;;;5.40;;
53521;SDS011;39398;48.382;9.802;2023-05-01T01:12:09;7.88;;;5.07;;
53521;SDS011;39398;48.382;9.802;2023-05-01T01:17:20;9.30;;;5.50;;
53521;SDS011;39398;48.382;9.802;2023-05-01T01:22:28;5.82;;;4.30;;
53521;SDS011;39398;48.382;9.802;2023-05-01T01:33:16;10.75;;;5.72;;
53521;SDS011;39398;48.382;9.802;2023-05-01T01:38:35;9.52;;;4.53;;
53521;SDS011;39398;48.382;9.802;2023-05-01T01:43:44;6.68;;;5.20;;
53521;SDS011;39398;48.382;9.802;2023-05-01T01:48:53;9.25;;;5.13;;
53521;SDS011;39398;48.382;9.802;2023-05-01T01:53:59;8.00;;;5.47;;
53521;SDS011;39398;48.382;9.802;2023-05-01T01:59:03;7.28;;;5.50;;
53521;SDS011;39398;48.382;9.802;2023-05-01T02:04:07;7.22;;;6.00;;
53521;SDS011;39398;48.382;9.802;2023-05-01T02:09:13;7.10;;;5.10;;
53521;SDS011;39398;48.382;9.802;2023-05-01T02:14:21;7.60;;;5.20;;
53521;SDS011;39398;48.382;9.802;2023-05-01T02:19:26;6.93;;;4.82;;
53521;SDS011;39398;48.382;9.802;2023-05-01T02:29:38;7.65;;;5.22;;
53521;SDS011;39398;48.382;9.802;2023-05-01T02:34:39;8.85;;;6.35;;
53521;SDS011;39398;48.382;9.802;2023-05-01T02:39:42;10.98;;;5.65;;
53521;SDS011;39398;48.382;9.802;2023-05-01T02:44:46;11.20;;;5.45;;
53521;SDS011;39398;48.382;9.802;2023-05-01T02:54:59;9.25;;;6.90;;
53521;SDS011;39398;48.382;9.802;2023-05-01T03:00:01;9.82;;;6.90;;
53521;SDS011;39398;48.382;9.802;2023-05-01T03:05:03;9.95;;;7.38;;
53521;SDS011;39398;48.382;9.802;2023-05-01T03:10:06;9.30;;;6.00;;
53521;SDS011;39398;48.382;9.802;2023-05-01T03:15:09;10.48;;;6.00;;
53521;SDS011;39398;48.382;9.802;2023-05-01T03:25:55;9.93;;;7.18;;
53521;SDS011;39398;48.382;9.802;2023-05-01T03:30:58;6.43;;;5.30;;
53521;SDS011;39398;48.382;9.802;2023-05-01T03:36:00;8.75;;;6.30;;
53521;SDS011;39398;48.382;9.802;2023-05-01T03:41:08;7.22;;;6.43;;
53521;SDS011;39398;48.382;9.802;2023-05-01T03:46:10;9.82;;;6.00;;
53521;SDS011;39398;48.382;9.802;2023-05-01T03:51:12;11.93;;;7.03;;
53521;SDS011;39398;48.382;9.802;2023-05-01T03:56:15;9.90;;;7.60;;
53521;SDS011;39398;48.382;9.802;2023-05-01T04:01:19;8.32;;;6.75;;
53521;SDS011;39398;48.382;9.802;2023-05-01T04:06:20;9.68;;;7.40;;
53521;SDS011;39398;48.382;9.802;2023-05-01T04:11:23;9.00;;;6.07;;
53521;SDS011;39398;48.382;9.802;2023-05-01T04:16:25;11.70;;;7.05;;
53521;SDS011;39398;48.382;9.802;2023-05-01T04:21:27;10.52;;;7.43;;
53521;SDS011;39398;48.382;9.802;2023-05-01T04:26:30;11.10;;;7.65;;
53521;SDS011;39398;48.382;9.802;2023-05-01T04:31:31;11.75;;;7.22;;
53521;SDS011;39398;48.382;9.802;2023-05-01T04:36:33;8.95;;;7.50;;
53521;SDS011;39398;48.382;9.802;2023-05-01T04:41:36;12.27;;;8.20;;
53521;SDS011;39398;48.382;9.802;2023-05-01T04:46:38;8.57;;;7.38;;
53521;SDS011;39398;48.382;9.802;2023-05-01T04:51:39;10.35;;;7.18;;
53521;SDS011;39398;48.382;9.802;2023-05-01T04:56:45;11.82;;;7.88;;
53521;SDS011;39398;48.382;9.802;2023-05-01T05:01:46;9.07;;;7.15;;
53521;SDS011;39398;48.382;9.802;2023-05-01T05:06:51;9.27;;;6.90;;
53521;SDS011;39398;48.382;9.802;2023-05-01T05:11:54;11.63;;;6.47;;
53521;SDS011;39398;48.382;9.802;2023-05-01T05:16:55;10.07;;;8.75;;
53521;SDS011;39398;48.382;9.802;2023-05-01T05:21:57;10.52;;;8.73;;
53521;SDS011;39398;48.382;9.802;2023-05-01T05:27:00;10.02;;;8.45;;
53521;SDS011;39398;48.382;9.802;2023-05-01T05:32:02;10.75;;;8.57;;
53521;SDS011;39398;48.382;9.802;2023-05-01T05:37:04;13.05;;;9.30;;
53521;SDS011;39398;48.382;9.802;2023-05-01T05:42:07;11.57;;;7.53;;
53521;SDS011;39398;48.382;9.802;2023-05-01T05:47:11;10.43;;;8.32;;
53521;SDS011;39398;48.382;9.802;2023-05-01T05:52:12;9.98;;;7.68;;
53521;SDS011;39398;48.382;9.802;2023-05-01T05:57:18;9.90;;;7.90;;
53521;SDS011;39398;48.382;9.802;2023-05-01T06:02:21;10.30;;;8.10;;
53521;SDS011;39398;48.382;9.802;2023-05-01T06:07:23;11.68;;;7.95;;
53521;SDS011;39398;48.382;9.802;2023-05-01T06:12:26;8.98;;;6.40;;
53521;SDS011;39398;48.382;9.802;2023-05-01T06:17:29;10.25;;;7.22;;
53521;SDS011;39398;48.382;9.802;2023-05-01T06:22:30;10.88;;;7.10;;
53521;SDS011;39398;48.382;9.802;2023-05-01T06:27:34;11.95;;;6.63;;
53521;SDS011;39398;48.382;9.802;2023-05-01T06:32:35;12.15;;;7.85;;
53521;SDS011;39398;48.382;9.802;2023-05-01T06:37:37;10.07;;;6.65;;
53521;SDS011;39398;48.382;9.802;2023-05-01T06:42:40;10.85;;;8.45;;
53521;SDS011;39398;48.382;9.802;2023-05-01T06:47:44;8.68;;;5.43;;
53521;SDS011;39398;48.382;9.802;2023-05-01T06:52:47;7.68;;;6.00;;
53521;SDS011;39398;48.382;9.802;2023-05-01T06:57:50;10.32;;;7.38;;
53521;SDS011;39398;48.382;9.802;2023-05-01T07:02:54;14.35;;;8.68;;
53521;SDS011;39398;48.382;9.802;2023-05-01T07:08:03;11.18;;;7.75;;
53521;SDS011;39398;48.382;9.802;2023-05-01T07:13:08;12.68;;;8.43;;
53521;SDS011;39398;48.382;9.802;2023-05-01T07:18:23;11.98;;;7.53;;
53521;SDS011;39398;48.382;9.802;2023-05-01T07:23:25;8.18;;;7.22;;
53521;SDS011;39398;48.382;9.802;2023-05-01T07:28:28;9.73;;;7.85;;
53521;SDS011;39398;48.382;9.802;2023-05-01T07:33:30;12.80;;;8.02;;
53521;SDS011;39398;48.382;9.802;2023-05-01T07:38:31;11.13;;;7.68;;
53521;SDS011;39398;48.382;9.802;2023-05-01T07:43:35;10.27;;;7.70;;
53521;SDS011;39398;48.382;9.802;2023-05-01T07:48:37;9.07;;;7.43;;
53521;SDS011;39398;48.382;9.802;2023-05-01T07:53:39;9.45;;;7.13;;
53521;SDS011;39398;48.382;9.802;2023-05-01T07:58:43;10.82;;;7.75;;
53521;SDS011;39398;48.382;9.802;2023-05-01T08:03:46;10.90;;;8.13;;
53521;SDS011;39398;48.382;9.802;2023-05-01T08:08:52;11.73;;;7.35;;
53521;SDS011;39398;48.382;9.802;2023-05-01T08:13:55;9.52;;;7.15;;
53521;SDS011;39398;48.382;9.802;2023-05-01T08:18:57;7.70;;;6.03;;
53521;SDS011;39398;48.382;9.802;2023-05-01T08:24:00;9.02;;;6.90;;
53521;SDS011;39398;48.382;9.802;2023-05-01T08:29:06;7.63;;;6.78;;
53521;SDS011;39398;48.382;9.802;2023-05-01T08:34:08;12.93;;;6.72;;
53521;SDS011;39398;48.382;9.802;2023-05-01T08:39:10;10.07;;;7.13;;
53521;SDS011;39398;48.382;9.802;2023-05-01T08:44:14;11.30;;;7.55;;
53521;SDS011;39398;48.382;9.802;2023-05-01T08:49:17;11.40;;;7.20;;
53521;SDS011;39398;48.382;9.802;2023-05-01T08:54:25;8.75;;;6.93;;
53521;SDS011;39398;48.382;9.802;2023-05-01T08:59:31;8.60;;;6.65;;
53521;SDS011;39398;48.382;9.802;2023-05-01T09:04:43;9.25;;;7.65;;
53521;SDS011;39398;48.382;9.802;2023-05-01T09:09:46;8.70;;;7.68;;
53521;SDS011;39398;48.382;9.802;2023-05-01T09:14:50;10.05;;;7.68;;
53521;SDS011;39398;48.382;9.802;2023-05-01T09:20:00;10.60;;;7.97;;
53521;SDS011;39398;48.382;9.802;2023-05-01T09:25:02;11.45;;;8.43;;
53521;SDS011;39398;48.382;9.802;2023-05-01T09:30:07;12.00;;;7.93;;
53521;SDS011;39398;48.382;9.802;2023-05-01T09:35:09;10.88;;;8.43;;
53521;SDS011;39398;48.382;9.802;2023-05-01T09:40:13;10.43;;;8.75;;
53521;SDS011;39398;48.382;9.802;2023-05-01T09:45:19;9.35;;;8.20;;
53521;SDS011;39398;48.382;9.802;2023-05-01T09:50:27;10.70;;;8.35;;
53521;SDS011;39398;48.382;9.802;2023-05-01T09:55:33;12.52;;;8.07;;
53521;SDS011;39398;48.382;9.802;2023-05-01T10:00:47;13.43;;;8.73;;
53521;SDS011;39398;48.382;9.802;2023-05-01T10:05:49;12.82;;;8.60;;
53521;SDS011;39398;48.382;9.802;2023-05-01T10:10:59;12.13;;;9.95;;
53521;SDS011;39398;48.382;9.802;2023-05-01T10:16:05;11.90;;;8.70;;
53521;SDS011;39398;48.382;9.802;2023-05-01T10:21:07;11.90;;;9.63;;
53521;SDS011;39398;48.382;9.802;2023-05-01T10:26:10;14.02;;;10.70;;
53521;SDS011;39398;48.382;9.802;2023-05-01T10:31:19;13.77;;;9.30;;
53521;SDS011;39398;48.382;9.802;2023-05-01T10:36:22;12.00;;;10.15;;
53521;SDS011;39398;48.382;9.802;2023-05-01T11:03:59;11.85;;;8.40;;
53521;SDS011;39398;48.382;9.802;2023-05-01T11:09:34;11.77;;;9.32;;
53521;SDS011;39398;48.382;9.802;2023-05-01T11:20:06;11.15;;;8.20;;
53521;SDS011;39398;48.382;9.802;2023-05-01T11:25:16;12.18;;;9.50;;
53521;SDS011;39398;48.382;9.802;2023-05-01T11:30:20;11.95;;;9.05;;
53521;SDS011;39398;48.382;9.802;2023-05-01T11:35:26;11.05;;;8.82;;
53521;SDS011;39398;48.382;9.802;2023-05-01T11:40:29;9.77;;;8.77;;
53521;SDS011;39398;48.382;9.802;2023-05-01T11:45:33;11.30;;;8.18;;
53521;SDS011;39398;48.382;9.802;2023-05-01T11:50:43;10.10;;;8.55;;
53521;SDS011;39398;48.382;9.802;2023-05-01T11:55:45;8.57;;;7.68;;
53521;SDS011;39398;48.382;9.802;2023-05-01T12:00:47;10.43;;;8.23;;
53521;SDS011;39398;48.382;9.802;2023-05-01T12:05:52;10.40;;;8.57;;
53521;SDS011;39398;48.382;9.802;2023-05-01T12:10:54;10.63;;;8.32;;
53521;SDS011;39398;48.382;9.802;2023-05-01T12:15:59;12.07;;;8.57;;
53521;SDS011;39398;48.382;9.802;2023-05-01T12:21:02;9.35;;;8.18;;
53521;SDS011;39398;48.382;9.802;2023-05-01T12:26:14;9.93;;;7.60;;
53521;SDS011;39398;48.382;9.802;2023-05-01T12:31:16;11.05;;;7.30;;
53521;SDS011;39398;48.382;9.802;2023-05-01T12:36:22;9.80;;;6.88;;
53521;SDS011;39398;48.382;9.802;2023-05-01T12:41:37;6.38;;;5.45;;
53521;SDS011;39398;48.382;9.802;2023-05-01T12:46:41;5.20;;;4.70;;
53521;SDS011;39398;48.382;9.802;2023-05-01T12:51:50;5.60;;;4.80;;
53521;SDS011;39398;48.382;9.802;2023-05-01T13:01:56;6.25;;;4.15;;
53521;SDS011;39398;48.382;9.802;2023-05-01T13:07:03;4.60;;;3.72;;
53521;SDS011;39398;48.382;9.802;2023-05-01T13:12:14;5.55;;;4.05;;
53521;SDS011;39398;48.382;9.802;2023-05-01T13:17:21;5.00;;;4.35;;
53521;SDS011;39398;48.382;9.802;2023-05-01T13:22:28;5.10;;;4.20;;
53521;SDS011;39398;48.382;9.802;2023-05-01T13:27:31;5.43;;;4.90;;
53521;SDS011;39398;48.382;9.802;2023-05-01T13:32:33;6.82;;;5.60;;
53521;SDS011;39398;48.382;9.802;2023-05-01T13:37:40;7.07;;;5.72;;
53521;SDS011;39398;48.382;9.802;2023-05-01T13:42:42;6.88;;;5.40;;
53521;SDS011;39398;48.382;9.802;2023-05-01T13:47:44;6.65;;;5.07;;
53521;SDS011;39398;48.382;9.802;2023-05-01T13:52:47;8.05;;;5.05;;
53521;SDS011;39398;48.382;9.802;2023-05-01T13:57:50;7.15;;;4.38;;
53521;SDS011;39398;48.382;9.802;2023-05-01T14:02:52;5.75;;;4.15;;
53521;SDS011;39398;48.382;9.802;2023-05-01T14:07:55;4.82;;;4.22;;
53521;SDS011;39398;48.382;9.802;2023-05-01T14:13:00;5.40;;;4.90;;
53521;SDS011;39398;48.382;9.802;2023-05-01T14:18:13;4.38;;;3.97;;
53521;SDS011;39398;48.382;9.802;2023-05-01T14:23:17;4.85;;;4.18;;
53521;SDS011;39398;48.382;9.802;2023-05-01T14:28:19;5.43;;;4.93;;
53521;SDS011;39398;48.382;9.802;2023-05-01T14:33:21;5.20;;;4.70;;
53521;SDS011;39398;48.382;9.802;2023-05-01T14:38:24;4.40;;;4.00;;
53521;SDS011;39398;48.382;9.802;2023-05-01T14:43:26;7.28;;;4.88;;
53521;SDS011;39398;48.382;9.802;2023-05-01T14:48:29;4.45;;;3.63;;
53521;SDS011;39398;48.382;9.802;2023-05-01T14:58:39;3.88;;;3.10;;
53521;SDS011;39398;48.382;9.802;2023-05-01T15:03:43;3.45;;;3.15;;
53521;SDS011;39398;48.382;9.802;2023-05-01T15:14:08;5.93;;;4.93;;
53521;SDS011;39398;48.382;9.802;2023-05-01T15:19:09;3.63;;;3.20;;
53521;SDS011;39398;48.382;9.802;2023-05-01T15:24:12;2.13;;;1.23;;
53521;SDS011;39398;48.382;9.802;2023-05-01T15:29:14;1.20;;;1.10;;
53521;SDS011;39398;48.382;9.802;2023-05-01T15:34:19;1.10;;;1.10;;
53521;SDS011;39398;48.382;9.802;2023-05-01T15:39:25;1.30;;;1.20;;
53521;SDS011;39398;48.382;9.802;2023-05-01T15:44:29;1.30;;;1.20;;
53521;SDS011;39398;48.382;9.802;2023-05-01T15:49:31;1.00;;;1.00;;
53521;SDS011;39398;48.382;9.802;2023-05-01T15:54:34;3.38;;;1.00;;
53521;SDS011;39398;48.382;9.802;2023-05-01T15:59:38;1.40;;;1.30;;
53521;SDS011;39398;48.382;9.802;2023-05-01T16:04:40;1.75;;;1.48;;
53521;SDS011;39398;48.382;9.802;2023-05-01T16:09:56;9.55;;;1.60;;
53521;SDS011;39398;48.382;9.802;2023-05-01T16:14:59;1.77;;;1.67;;
53521;SDS011;39398;48.382;9.802;2023-05-01T16:20:02;1.67;;;1.50;;
53521;SDS011;39398;48.382;9.802;2023-05-01T16:25:11;2.30;;;1.80;;
53521;SDS011;39398;48.382;9.802;2023-05-01T16:30:13;3.15;;;1.33;;
53521;SDS011;39398;48.382;9.802;2023-05-01T16:35:15;1.00;;;1.00;;
53521;SDS011;39398;48.382;9.802;2023-05-01T16:40:21;1.60;;;1.50;;
53521;SDS011;39398;48.382;9.802;2023-05-01T16:45:23;0.93;;;0.93;;
53521;SDS011;39398;48.382;9.802;2023-05-01T16:50:32;3.22;;;1.65;;
53521;SDS011;39398;48.382;9.802;2023-05-01T16:55:37;1.67;;;1.23;;
53521;SDS011;39398;48.382;9.802;2023-05-01T17:00:39;2.30;;;1.80;;
53521;SDS011;39398;48.382;9.802;2023-05-01T17:05:41;3.53;;;1.70;;
53521;SDS011;39398;48.382;9.802;2023-05-01T17:10:46;2.30;;;2.08;;
53521;SDS011;39398;48.382;9.802;2023-05-01T17:15:50;1.90;;;1.70;;
53521;SDS011;39398;48.382;9.802;2023-05-01T17:20:51;2.20;;;2.00;;
53521;SDS011;39398;48.382;9.802;2023-05-01T17:25:54;20.30;;;11.85;;
53521;SDS011;39398;48.382;9.802;2023-05-01T17:30:56;2.53;;;2.33;;
53521;SDS011;39398;48.382;9.802;2023-05-01T17:36:00;2.63;;;2.42;;
53521;SDS011;39398;48.382;9.802;2023-05-01T17:41:03;3.03;;;2.78;;
53521;SDS011;39398;48.382;9.802;2023-05-01T17:46:05;21.23;;;12.02;;
53521;SDS011;39398;48.382;9.802;2023-05-01T17:51:08;6.43;;;5.63;;
53521;SDS011;39398;48.382;9.802;2023-05-01T17:56:11;8.63;;;6.55;;
53521;SDS011;39398;48.382;9.802;2023-05-01T18:01:15;7.28;;;4.72;;
53521;SDS011;39398;48.382;9.802;2023-05-01T18:06:19;5.50;;;4.28;;
53521;SDS011;39398;48.382;9.802;2023-05-01T18:11:22;4.65;;;4.05;;
53521;SDS011;39398;48.382;9.802;2023-05-01T18:16:23;4.78;;;4.13;;
53521;SDS011;39398;48.382;9.802;2023-05-01T18:21:25;14.30;;;8.35;;
53521;SDS011;39398;48.382;9.802;2023-05-01T18:26:33;10.63;;;7.38;;
53521;SDS011;39398;48.382;9.802;2023-05-01T18:31:34;7.70;;;6.57;;
53521;SDS011;39398;48.382;9.802;2023-05-01T18:36:37;7.95;;;6.70;;
53521;SDS011;39398;48.382;9.802;2023-05-01T18:41:43;9.70;;;8.02;;
53521;SDS011;39398;48.382;9.802;2023-05-01T18:46:45;11.90;;;8.43;;
53521;SDS011;39398;48.382;9.802;2023-05-01T18:51:46;14.43;;;10.20;;
53521;SDS011;39398;48.382;9.802;2023-05-01T18:56:52;11.70;;;9.05;;
53521;SDS011;39398;48.382;9.802;2023-05-01T19:01:56;15.90;;;10.30;;
53521;SDS011;39398;48.382;9.802;2023-05-01T19:06:59;16.98;;;10.65;;
53521;SDS011;39398;48.382;9.802;2023-05-01T19:12:02;15.75;;;9.98;;
53521;SDS011;39398;48.382;9.802;2023-05-01T19:17:04;13.70;;;10.93;;
53521;SDS011;39398;48.382;9.802;2023-05-01T19:22:06;12.95;;;9.35;;
53521;SDS011;39398;48.382;9.802;2023-05-01T19:27:09;11.20;;;9.18;;
53521;SDS011;39398;48.382;9.802;2023-05-01T19:32:11;13.65;;;8.30;;
53521;SDS011;39398;48.382;9.802;2023-05-01T19:37:13;12.38;;;8.88;;
53521;SDS011;39398;48.382;9.802;2023-05-01T19:42:16;12.52;;;9.15;;
53521;SDS011;39398;48.382;9.802;2023-05-01T19:47:18;15.63;;;10.30;;
53521;SDS011;39398;48.382;9.802;2023-05-01T19:52:23;16.25;;;11.90;;
53521;SDS011;39398;48.382;9.802;2023-05-01T19:57:26;16.70;;;12.15;;
53521;SDS011;39398;48.382;9.802;2023-05-01T20:02:28;18.13;;;13.80;;
53521;SDS011;39398;48.382;9.802;2023-05-01T20:07:30;18.38;;;13.30;;
53521;SDS011;39398;48.382;9.802;2023-05-01T20:12:35;15.30;;;11.23;;
53521;SDS011;39398;48.382;9.802;2023-05-01T20:17:40;14.18;;;10.98;;
53521;SDS011;39398;48.382;9.802;2023-05-01T20:22:42;15.00;;;10.38;;
53521;SDS011;39398;48.382;9.802;2023-05-01T20:27:45;13.05;;;10.73;;
53521;SDS011;39398;48.382;9.802;2023-05-01T20:32:49;16.20;;;12.60;;
53521;SDS011;39398;48.382;9.802;2023-05-01T20:37:51;10.82;;;8.20;;
53521;SDS011;39398;48.382;9.802;2023-05-01T20:42:54;11.57;;;7.43;;
53521;SDS011;39398;48.382;9.802;2023-05-01T20:47:55;11.48;;;7.90;;
53521;SDS011;39398;48.382;9.802;2023-05-01T20:52:57;13.68;;;7.93;;
53521;SDS011;39398;48.382;9.802;2023-05-01T20:58:01;10.05;;;7.57;;
53521;SDS011;39398;48.382;9.802;2023-05-01T21:03:02;11.57;;;7.35;;
53521;SDS011;39398;48.382;9.802;2023-05-01T21:08:04;10.05;;;7.28;;
53521;SDS011;39398;48.382;9.802;2023-05-01T21:13:07;8.20;;;6.82;;
53521;SDS011;39398;48.382;9.802;2023-05-01T21:18:16;9.00;;;6.60;;
53521;SDS011;39398;48.382;9.802;2023-05-01T21:23:18;9.50;;;7.03;;
53521;SDS011;39398;48.382;9.802;2023-05-01T21:28:21;8.13;;;6.75;;
53521;SDS011;39398;48.382;9.802;2023-05-01T21:33:24;9.32;;;6.40;;
53521;SDS011;39398;48.382;9.802;2023-05-01T21:38:26;10.00;;;6.40;;
53521;SDS011;39398;48.382;9.802;2023-05-01T21:43:33;8.15;;;5.93;;
53521;SDS011;39398;48.382;9.802;2023-05-01T21:48:35;7.82;;;6.15;;
53521;SDS011;39398;48.382;9.802;2023-05-01T21:53:39;8.40;;;6.15;;
53521;SDS011;39398;48.382;9.802;2023-05-01T21:58:42;7.45;;;6.00;;
53521;SDS011;39398;48.382;9.802;2023-05-01T22:03:44;8.07;;;5.82;;
53521;SDS011;39398;48.382;9.802;2023-05-01T22:08:48;8.57;;;5.65;;
53521;SDS011;39398;48.382;9.802;2023-05-01T22:13:52;8.50;;;6.00;;
53521;SDS011;39398;48.382;9.802;2023-05-01T22:18:53;8.23;;;6.28;;
53521;SDS011;39398;48.382;9.802;2023-05-01T22:23:56;8.05;;;6.53;;
53521;SDS011;39398;48.382;9.802;2023-05-01T22:28:59;7.30;;;6.53;;
53521;SDS011;39398;48.382;9.802;2023-05-01T22:34:01;8.38;;;5.97;;
53521;SDS011;39398;48.382;9.802;2023-05-01T22:39:02;5.82;;;4.72;;
53521;SDS011;39398;48.382;9.802;2023-05-01T22:44:06;6.75;;;5.30;;
53521;SDS011;39398;48.382;9.802;2023-05-01T22:49:07;7.25;;;5.38;;
53521;SDS011;39398;48.382;9.802;2023-05-01T22:54:09;7.43;;;5.32;;
53521;SDS011;39398;48.382;9.802;2023-05-01T22:59:12;7.57;;;5.10;;
53521;SDS011;39398;48.382;9.802;2023-05-01T23:04:17;7.90;;;5.07;;
53521;SDS011;39398;48.382;9.802;2023-05-01T23:09:19;5.68;;;4.93;;
53521;SDS011;39398;48.382;9.802;2023-05-01T23:14:22;6.43;;;5.00;;
53521;SDS011;39398;48.382;9.802;2023-05-01T23:24:46;8.73;;;5.35;;
53521;SDS011;39398;48.382;9.802;2023-05-01T23:29:55;6.70;;;5.40;;
53521;SDS011;39398;48.382;9.802;2023-05-01T23:34:59;5.85;;;4.68;;
53521;SDS011;39398;48.382;9.802;2023-05-01T23:40:05;5.63;;;4.70;;
53521;SDS011;39398;48.382;9.802;2023-05-01T23:45:09;7.93;;;5.22;;
53521;SDS011;39398;48.382;9.802;2023-05-01T23:50:11;8.25;;;5.22;;
53521;SDS011;39398;48.382;9.802;2023-05-01T23:55:13;8.40;;;5.55;;
